createdAt,value
2023-01-04T00:00:15.751Z,1016.58
2023-01-04T00:01:15.708Z,1016.70
2023-01-04T00:02:15.793Z,1016.62
2023-01-04T00:03:15.787Z,1016.62
2023-01-04T00:04:15.655Z,1016.60
2023-01-04T00:05:15.651Z,1016.57
2023-01-04T00:06:15.629Z,1016.61
2023-01-04T00:07:15.631Z,1016.56
2023-01-04T00:08:15.609Z,1016.61
2023-01-04T00:09:15.609Z,1016.60
2023-01-04T00:10:15.602Z,1016.61
2023-01-04T00:11:15.580Z,1016.56
2023-01-04T00:12:15.548Z,1016.53
2023-01-04T00:13:15.543Z,1016.53
2023-01-04T00:14:15.552Z,1016.51
2023-01-04T00:15:15.539Z,1016.44
2023-01-04T00:16:15.620Z,1016.42
2023-01-04T00:17:15.541Z,1016.28
2023-01-04T00:18:15.499Z,1016.25
2023-01-04T00:19:15.477Z,1016.20
2023-01-04T00:20:15.497Z,1016.22
2023-01-04T00:21:15.468Z,1016.24
2023-01-04T00:22:15.454Z,1016.28
2023-01-04T00:23:15.447Z,1016.20
2023-01-04T00:24:15.452Z,1016.23
2023-01-04T00:25:15.427Z,1016.22
2023-01-04T00:26:15.418Z,1016.21
2023-01-04T00:27:15.395Z,1016.22
2023-01-04T00:28:15.381Z,1016.29
2023-01-04T00:29:15.444Z,1016.21
2023-01-04T00:30:15.370Z,1016.22
2023-01-04T00:31:15.396Z,1016.18
2023-01-04T00:32:15.331Z,1016.21
2023-01-04T00:33:15.395Z,1016.18
2023-01-04T00:34:15.364Z,1016.12
2023-01-04T00:35:40.029Z,1016.13
2023-01-04T00:36:16.322Z,1016.14
2023-01-04T00:37:15.275Z,1016.11
2023-01-04T00:38:15.275Z,1016.06
2023-01-04T00:39:15.277Z,1016.08
2023-01-04T00:40:15.253Z,1016.11
2023-01-04T00:41:34.751Z,1016.02
2023-01-04T00:42:16.215Z,1016.06
2023-01-04T00:43:15.211Z,1016.04
2023-01-04T00:44:15.216Z,1015.98
2023-01-04T00:45:15.198Z,1015.94
2023-01-04T00:46:15.278Z,1015.95
2023-01-04T00:47:15.164Z,1015.91
2023-01-04T00:48:15.173Z,1015.82
2023-01-04T00:49:15.177Z,1015.88
2023-01-04T00:50:15.174Z,1015.87
2023-01-04T00:51:15.141Z,1015.93
2023-01-04T00:52:15.145Z,1015.95
2023-01-04T00:53:15.117Z,1015.94
2023-01-04T00:54:15.155Z,1015.87
2023-01-04T00:55:15.085Z,1015.80
2023-01-04T00:56:15.073Z,1015.80
2023-01-04T00:57:15.062Z,1015.76
2023-01-04T00:58:15.087Z,1015.73
2023-01-04T00:59:15.089Z,1015.62
2023-01-04T01:00:15.019Z,1015.63
2023-01-04T01:01:15.137Z,1015.65
2023-01-04T01:02:15.160Z,1015.55
2023-01-04T01:03:15.189Z,1015.62
2023-01-04T01:04:15.100Z,1015.62
2023-01-04T01:05:14.998Z,1015.54
2023-01-04T01:06:14.955Z,1015.54
2023-01-04T01:07:14.988Z,1015.60
2023-01-04T01:08:14.937Z,1015.58
2023-01-04T01:09:14.921Z,1015.53
2023-01-04T01:10:14.920Z,1015.60
2023-01-04T01:11:14.910Z,1015.62
2023-01-04T01:12:14.889Z,1015.54
2023-01-04T01:13:14.903Z,1015.48
2023-01-04T01:14:14.866Z,1015.47
2023-01-04T01:15:14.855Z,1015.45
2023-01-04T01:16:14.992Z,1015.55
2023-01-04T01:17:14.930Z,1015.51
2023-01-04T01:18:14.830Z,1015.58
2023-01-04T01:19:14.827Z,1015.58
2023-01-04T01:20:14.814Z,1015.43
2023-01-04T01:21:14.813Z,1015.49
2023-01-04T01:22:14.799Z,1015.44
2023-01-04T01:23:14.777Z,1015.52
2023-01-04T01:24:14.774Z,1015.45
2023-01-04T01:25:14.752Z,1015.43
2023-01-04T01:26:14.751Z,1015.38
2023-01-04T01:27:14.748Z,1015.38
2023-01-04T01:28:14.727Z,1015.42
2023-01-04T01:29:14.714Z,1015.36
2023-01-04T01:30:14.693Z,1015.37
2023-01-04T01:31:14.765Z,1015.33
2023-01-04T01:32:14.684Z,1015.32
2023-01-04T01:33:14.651Z,1015.29
2023-01-04T01:34:14.658Z,1015.26
2023-01-04T01:35:14.638Z,1015.31
2023-01-04T01:36:14.622Z,1015.30
2023-01-04T01:37:14.640Z,1015.21
2023-01-04T01:38:14.620Z,1015.22
2023-01-04T01:39:14.611Z,1015.22
2023-01-04T01:40:14.578Z,1015.09
2023-01-04T01:41:14.585Z,1015.12
2023-01-04T01:42:14.587Z,1015.12
2023-01-04T01:43:14.543Z,1015.05
2023-01-04T01:44:14.537Z,1015.00
2023-01-04T01:45:14.522Z,1014.90
2023-01-04T01:46:14.552Z,1014.94
2023-01-04T01:47:14.511Z,1015.00
2023-01-04T01:48:14.517Z,1015.05
2023-01-04T01:49:14.514Z,1014.96
2023-01-04T01:50:14.465Z,1014.96
2023-01-04T01:51:14.454Z,1015.01
2023-01-04T01:52:14.446Z,1015.01
2023-01-04T01:53:14.476Z,1014.98
2023-01-04T01:54:14.442Z,1014.92
2023-01-04T01:55:14.429Z,1014.94
2023-01-04T01:56:14.403Z,1014.95
2023-01-04T01:57:14.388Z,1014.93
2023-01-04T01:58:14.403Z,1014.87
2023-01-04T01:59:14.379Z,1014.90
2023-01-04T02:00:14.386Z,1014.83
2023-01-04T02:01:14.470Z,1014.91
2023-01-04T02:02:14.536Z,1014.87
2023-01-04T02:03:14.526Z,1014.77
2023-01-04T02:04:14.438Z,1014.68
2023-01-04T02:05:14.304Z,1014.87
2023-01-04T02:06:14.305Z,1014.80
2023-01-04T02:07:14.287Z,1014.82
2023-01-04T02:08:14.283Z,1014.74
2023-01-04T02:09:14.300Z,1014.81
2023-01-04T02:10:14.275Z,1014.86
2023-01-04T02:11:14.237Z,1014.81
2023-01-04T02:12:14.227Z,1014.74
2023-01-04T02:13:14.227Z,1014.81
2023-01-04T02:14:14.222Z,1014.72
2023-01-04T02:15:14.188Z,1014.78
2023-01-04T02:16:14.309Z,1014.81
2023-01-04T02:17:14.191Z,1014.63
2023-01-04T02:18:14.171Z,1014.71
2023-01-04T02:19:14.150Z,1014.71
2023-01-04T02:20:14.135Z,1014.80
2023-01-04T02:21:14.122Z,1014.71
2023-01-04T02:22:14.150Z,1014.66
2023-01-04T02:23:14.121Z,1014.54
2023-01-04T02:24:14.113Z,1014.66
2023-01-04T02:25:14.155Z,1014.64
2023-01-04T02:26:14.104Z,1014.60
2023-01-04T02:27:14.071Z,1014.64
2023-01-04T02:28:14.076Z,1014.60
2023-01-04T02:29:14.052Z,1014.54
2023-01-04T02:30:14.038Z,1014.56
2023-01-04T02:31:14.136Z,1014.58
2023-01-04T02:32:14.025Z,1014.53
2023-01-04T02:33:14.020Z,1014.57
2023-01-04T02:34:13.997Z,1014.54
2023-01-04T02:35:14.004Z,1014.45
2023-01-04T02:36:13.956Z,1014.43
2023-01-04T02:37:13.956Z,1014.50
2023-01-04T02:38:13.955Z,1014.36
2023-01-04T02:39:13.948Z,1014.38
2023-01-04T02:40:13.924Z,1014.22
2023-01-04T02:41:13.933Z,1013.99
2023-01-04T02:42:13.908Z,1014.28
2023-01-04T02:43:16.137Z,1014.14
2023-01-04T02:44:13.886Z,1014.25
2023-01-04T02:45:13.866Z,1014.10
2023-01-04T02:46:13.953Z,1014.12
2023-01-04T02:47:13.852Z,1014.14
2023-01-04T02:48:13.830Z,1014.09
2023-01-04T02:49:13.814Z,1013.99
2023-01-04T02:50:13.825Z,1014.07
2023-01-04T02:51:13.791Z,1014.16
2023-01-04T02:52:13.796Z,1014.17
2023-01-04T02:53:13.790Z,1014.15
2023-01-04T02:54:13.801Z,1013.98
2023-01-04T02:55:13.761Z,1014.04
2023-01-04T02:56:13.766Z,1013.93
2023-01-04T02:57:13.755Z,1013.98
2023-01-04T02:58:13.739Z,1013.94
2023-01-04T02:59:13.723Z,1013.98
2023-01-04T03:00:13.704Z,1013.98
2023-01-04T03:01:13.739Z,1013.93
2023-01-04T03:02:13.791Z,1013.93
2023-01-04T03:03:13.805Z,1013.85
2023-01-04T03:04:13.661Z,1013.59
2023-01-04T03:05:13.654Z,1013.78
2023-01-04T03:06:13.641Z,1013.81
2023-01-04T03:07:13.634Z,1013.69
2023-01-04T03:08:13.620Z,1013.68
2023-01-04T03:09:13.603Z,1013.74
2023-01-04T03:10:13.609Z,1013.59
2023-01-04T03:11:13.586Z,1013.61
2023-01-04T03:12:13.568Z,1013.67
2023-01-04T03:13:13.587Z,1013.66
2023-01-04T03:14:30.898Z,1013.72
2023-01-04T03:15:14.555Z,1013.68
2023-01-04T03:16:13.560Z,1013.71
2023-01-04T03:17:13.523Z,1013.64
2023-01-04T03:18:13.495Z,1013.71
2023-01-04T03:19:13.498Z,1013.67
2023-01-04T03:20:13.521Z,1013.70
2023-01-04T03:21:13.484Z,1013.67
2023-01-04T03:22:13.451Z,1013.55
2023-01-04T03:23:13.457Z,1013.64
2023-01-04T03:24:13.444Z,1013.66
2023-01-04T03:25:13.429Z,1013.63
2023-01-04T03:26:13.444Z,1013.67
2023-01-04T03:27:13.405Z,1013.65
2023-01-04T03:28:13.394Z,1013.60
2023-01-04T03:29:13.416Z,1013.52
2023-01-04T03:30:13.376Z,1013.62
2023-01-04T03:31:13.400Z,1013.53
2023-01-04T03:32:13.356Z,1013.62
2023-01-04T03:33:13.341Z,1013.54
2023-01-04T03:34:13.326Z,1013.40
2023-01-04T03:35:13.304Z,1013.55
2023-01-04T03:36:13.291Z,1013.46
2023-01-04T03:37:13.371Z,1013.57
2023-01-04T03:38:13.287Z,1013.57
2023-01-04T03:39:13.262Z,1013.48
2023-01-04T03:40:13.261Z,1013.57
2023-01-04T03:41:13.255Z,1013.62
2023-01-04T03:42:13.226Z,1013.59
2023-01-04T03:43:13.227Z,1013.62
2023-01-04T03:44:13.220Z,1013.56
2023-01-04T03:45:13.228Z,1013.50
2023-01-04T03:46:13.308Z,1013.54
2023-01-04T03:47:13.331Z,1013.50
2023-01-04T03:48:13.199Z,1013.43
2023-01-04T03:49:13.161Z,1013.40
2023-01-04T03:50:13.171Z,1013.42
2023-01-04T03:51:13.144Z,1013.41
2023-01-04T03:52:13.131Z,1013.46
2023-01-04T03:53:13.121Z,1013.43
2023-01-04T03:54:13.108Z,1013.45
2023-01-04T03:55:13.142Z,1013.30
2023-01-04T03:56:13.084Z,1013.44
2023-01-04T03:57:13.082Z,1013.30
2023-01-04T03:58:13.077Z,1013.44
2023-01-04T03:59:13.049Z,1013.38
2023-01-04T04:00:13.027Z,1013.20
2023-01-04T04:01:13.240Z,1013.23
2023-01-04T04:02:13.075Z,1013.18
2023-01-04T04:03:12.993Z,1013.19
2023-01-04T04:04:13.095Z,1013.08
2023-01-04T04:05:13.009Z,1013.07
2023-01-04T04:06:12.964Z,1013.00
2023-01-04T04:07:12.972Z,1013.12
2023-01-04T04:08:12.939Z,1012.99
2023-01-04T04:09:12.938Z,1012.97
2023-01-04T04:10:12.928Z,1013.02
2023-01-04T04:11:12.924Z,1012.92
2023-01-04T04:12:12.891Z,1012.95
2023-01-04T04:13:12.898Z,1012.83
2023-01-04T04:14:12.885Z,1012.98
2023-01-04T04:15:12.863Z,1012.96
2023-01-04T04:16:12.916Z,1012.97
2023-01-04T04:17:12.900Z,1012.97
2023-01-04T04:18:12.836Z,1013.10
2023-01-04T04:19:12.836Z,1013.09
2023-01-04T04:20:12.845Z,1013.17
2023-01-04T04:21:12.813Z,1013.15
2023-01-04T04:22:12.794Z,1013.21
2023-01-04T04:23:12.792Z,1013.24
2023-01-04T04:24:12.762Z,1013.12
2023-01-04T04:25:12.768Z,1013.31
2023-01-04T04:26:12.769Z,1013.26
2023-01-04T04:27:12.793Z,1012.97
2023-01-04T04:28:12.716Z,1013.19
2023-01-04T04:29:12.707Z,1013.25
2023-01-04T04:30:12.733Z,1013.22
2023-01-04T04:31:12.800Z,1013.23
2023-01-04T04:32:12.742Z,1012.98
2023-01-04T04:33:12.707Z,1013.05
2023-01-04T04:34:12.670Z,1013.03
2023-01-04T04:35:12.652Z,1012.75
2023-01-04T04:36:12.635Z,1012.81
2023-01-04T04:37:12.635Z,1012.58
2023-01-04T04:38:12.606Z,1012.51
2023-01-04T04:39:12.610Z,1012.56
2023-01-04T04:40:12.605Z,1012.51
2023-01-04T04:41:12.585Z,1012.47
2023-01-04T04:42:12.577Z,1012.48
2023-01-04T04:43:12.583Z,1012.75
2023-01-04T04:44:12.572Z,1012.89
2023-01-04T04:45:12.536Z,1012.88
2023-01-04T04:46:12.621Z,1013.11
2023-01-04T04:47:12.503Z,1013.02
2023-01-04T04:48:12.497Z,1012.96
2023-01-04T04:49:12.540Z,1012.93
2023-01-04T04:50:12.489Z,1012.73
2023-01-04T04:51:12.484Z,1012.79
2023-01-04T04:52:12.452Z,1012.74
2023-01-04T04:53:12.466Z,1012.80
2023-01-04T04:54:12.436Z,1012.78
2023-01-04T04:55:12.414Z,1012.83
2023-01-04T04:56:12.425Z,1012.82
2023-01-04T04:57:12.424Z,1012.84
2023-01-04T04:58:12.386Z,1013.04
2023-01-04T04:59:12.386Z,1012.86
2023-01-04T05:00:12.381Z,1012.81
2023-01-04T05:01:12.476Z,1012.88
2023-01-04T05:02:12.641Z,1013.20
2023-01-04T05:03:12.401Z,1012.84
2023-01-04T05:04:12.338Z,1012.70
2023-01-04T05:05:12.356Z,1012.82
2023-01-04T05:06:12.310Z,1012.94
2023-01-04T05:07:12.900Z,1012.67
2023-01-04T05:08:12.297Z,1012.81
2023-01-04T05:09:12.304Z,1012.82
2023-01-04T05:10:12.261Z,1012.72
2023-01-04T05:11:12.250Z,1012.75
2023-01-04T05:12:12.251Z,1012.80
2023-01-04T05:13:12.220Z,1012.55
2023-01-04T05:14:12.209Z,1012.74
2023-01-04T05:15:12.215Z,1012.78
2023-01-04T05:16:12.221Z,1012.69
2023-01-04T05:17:12.187Z,1012.82
2023-01-04T05:18:12.162Z,1012.82
2023-01-04T05:19:12.156Z,1012.83
2023-01-04T05:20:12.150Z,1012.88
2023-01-04T05:21:16.906Z,1012.92
2023-01-04T05:22:13.127Z,1012.90
2023-01-04T05:23:12.135Z,1012.87
2023-01-04T05:24:12.111Z,1012.97
2023-01-04T05:25:12.096Z,1012.93
2023-01-04T05:26:12.076Z,1012.90
2023-01-04T05:27:12.078Z,1012.72
2023-01-04T05:28:12.069Z,1012.84
2023-01-04T05:29:12.044Z,1012.89
2023-01-04T05:30:12.031Z,1012.76
2023-01-04T05:31:12.136Z,1012.78
2023-01-04T05:32:12.142Z,1012.78
2023-01-04T05:33:11.999Z,1012.79
2023-01-04T05:34:15.825Z,1012.80
2023-01-04T05:35:12.981Z,1012.62
2023-01-04T05:36:11.959Z,1012.67
2023-01-04T05:37:11.988Z,1012.75
2023-01-04T05:38:11.941Z,1012.61
2023-01-04T05:39:11.952Z,1012.61
2023-01-04T05:40:11.942Z,1012.58
2023-01-04T05:41:11.919Z,1012.50
2023-01-04T05:42:11.924Z,1012.35
2023-01-04T05:43:11.901Z,1012.30
2023-01-04T05:44:11.893Z,1012.28
2023-01-04T05:45:11.880Z,1012.16
2023-01-04T05:46:11.911Z,1012.24
2023-01-04T05:47:15.168Z,1012.11
2023-01-04T05:48:11.834Z,1012.25
2023-01-04T05:49:11.838Z,1012.23
2023-01-04T05:50:11.824Z,1012.17
2023-01-04T05:51:11.824Z,1012.21
2023-01-04T05:52:11.804Z,1012.09
2023-01-04T05:53:11.816Z,1012.22
2023-01-04T05:54:13.101Z,1012.09
2023-01-04T05:55:11.752Z,1012.28
2023-01-04T05:56:11.755Z,1012.28
2023-01-04T05:57:11.739Z,1012.11
2023-01-04T05:58:11.750Z,1012.12
2023-01-04T05:59:11.720Z,1012.14
2023-01-04T06:00:11.707Z,1012.17
2023-01-04T06:01:11.756Z,1012.22
2023-01-04T06:02:11.822Z,1012.16
2023-01-04T06:03:11.841Z,1012.22
2023-01-04T06:04:11.731Z,1012.20
2023-01-04T06:05:11.737Z,1012.10
2023-01-04T06:06:11.660Z,1012.22
2023-01-04T06:07:11.661Z,1012.06
2023-01-04T06:08:11.633Z,1012.12
2023-01-04T06:09:11.764Z,1012.16
2023-01-04T06:10:11.637Z,1012.21
2023-01-04T06:11:11.597Z,1012.34
2023-01-04T06:12:11.574Z,1012.27
2023-01-04T06:13:11.586Z,1012.25
2023-01-04T06:14:11.568Z,1012.21
2023-01-04T06:15:11.544Z,1012.33
2023-01-04T06:16:11.582Z,1012.28
2023-01-04T06:17:11.632Z,1012.35
2023-01-04T06:18:13.739Z,1012.35
2023-01-04T06:19:11.492Z,1012.34
2023-01-04T06:20:11.517Z,1012.33
2023-01-04T06:21:11.476Z,1012.22
2023-01-04T06:22:11.479Z,1012.24
2023-01-04T06:23:11.491Z,1012.20
2023-01-04T06:24:11.449Z,1012.20
2023-01-04T06:25:11.469Z,1012.21
2023-01-04T06:26:11.420Z,1012.30
2023-01-04T06:27:11.402Z,1011.95
2023-01-04T06:28:11.411Z,1012.28
2023-01-04T06:29:11.434Z,1012.20
2023-01-04T06:30:11.391Z,1012.19
2023-01-04T06:31:11.484Z,1012.10
2023-01-04T06:32:11.390Z,1012.13
2023-01-04T06:33:11.359Z,1012.10
2023-01-04T06:34:11.331Z,1012.18
2023-01-04T06:35:11.344Z,1012.19
2023-01-04T06:36:20.141Z,1011.91
2023-01-04T06:37:12.309Z,1012.07
2023-01-04T06:38:11.316Z,1011.87
2023-01-04T06:39:11.273Z,1012.10
2023-01-04T06:40:11.277Z,1012.16
2023-01-04T06:41:11.268Z,1012.23
2023-01-04T06:42:11.248Z,1012.35
2023-01-04T06:43:11.251Z,1012.21
2023-01-04T06:44:11.231Z,1012.15
2023-01-04T06:45:11.212Z,1012.06
2023-01-04T06:46:11.268Z,1012.11
2023-01-04T06:47:11.195Z,1012.04
2023-01-04T06:48:11.206Z,1012.03
2023-01-04T06:49:12.182Z,1012.04
2023-01-04T06:50:11.190Z,1011.97
2023-01-04T06:51:11.173Z,1012.00
2023-01-04T06:52:11.150Z,1011.89
2023-01-04T06:53:11.135Z,1012.03
2023-01-04T06:54:11.120Z,1011.93
2023-01-04T06:55:11.103Z,1011.79
2023-01-04T06:56:11.097Z,1011.79
2023-01-04T06:57:11.182Z,1011.77
2023-01-04T06:58:11.072Z,1011.80
2023-01-04T06:59:11.072Z,1011.80
2023-01-04T07:00:11.059Z,1011.73
2023-01-04T07:01:11.213Z,1011.81
2023-01-04T07:02:11.176Z,1011.60
2023-01-04T07:03:14.410Z,1011.64
2023-01-04T07:04:11.096Z,1011.65
2023-01-04T07:05:10.997Z,1011.78
2023-01-04T07:06:11.022Z,1011.71
2023-01-04T07:07:11.019Z,1011.54
2023-01-04T07:08:10.976Z,1011.62
2023-01-04T07:09:10.990Z,1011.67
2023-01-04T07:10:10.945Z,1011.61
2023-01-04T07:11:10.966Z,1011.74
2023-01-04T07:12:10.912Z,1011.65
2023-01-04T07:13:10.919Z,1011.54
2023-01-04T07:14:10.884Z,1011.57
2023-01-04T07:15:38.482Z,1011.68
2023-01-04T07:16:11.961Z,1011.60
2023-01-04T07:17:10.860Z,1011.56
2023-01-04T07:18:10.855Z,1011.68
2023-01-04T07:19:10.853Z,1011.69
2023-01-04T07:20:11.046Z,1011.66
2023-01-04T07:21:10.844Z,1011.61
2023-01-04T07:22:10.817Z,1011.67
2023-01-04T07:23:10.804Z,1011.71
2023-01-04T07:24:10.808Z,1011.76
2023-01-04T07:25:10.783Z,1011.67
2023-01-04T07:26:10.802Z,1011.76
2023-01-04T07:27:10.801Z,1011.79
2023-01-04T07:28:10.783Z,1011.72
2023-01-04T07:29:10.826Z,1011.78
2023-01-04T07:30:10.754Z,1011.76
2023-01-04T07:31:10.847Z,1011.77
2023-01-04T07:32:14.046Z,1011.98
2023-01-04T07:33:10.712Z,1011.80
2023-01-04T07:34:10.716Z,1011.96
2023-01-04T07:35:10.677Z,1011.93
2023-01-04T07:36:10.647Z,1011.91
2023-01-04T07:37:10.674Z,1011.98
2023-01-04T07:38:10.645Z,1011.93
2023-01-04T07:39:10.616Z,1011.89
2023-01-04T07:40:10.637Z,1011.76
2023-01-04T07:41:10.588Z,1011.92
2023-01-04T07:42:10.583Z,1011.91
2023-01-04T07:43:10.588Z,1011.94
2023-01-04T07:44:10.563Z,1011.93
2023-01-04T07:45:10.557Z,1011.80
2023-01-04T07:46:10.574Z,1011.91
2023-01-04T07:47:10.527Z,1011.82
2023-01-04T07:48:10.524Z,1011.83
2023-01-04T07:49:16.560Z,1011.83
2023-01-04T07:50:11.494Z,1011.93
2023-01-04T07:51:10.476Z,1011.86
2023-01-04T07:52:10.505Z,1011.80
2023-01-04T07:53:10.470Z,1011.78
2023-01-04T07:54:10.450Z,1011.80
2023-01-04T07:55:10.437Z,1011.80
2023-01-04T07:56:15.144Z,1011.80
2023-01-04T07:57:11.488Z,1011.88
2023-01-04T07:58:10.410Z,1011.83
2023-01-04T07:59:10.395Z,1011.87
2023-01-04T08:00:10.386Z,1011.94
2023-01-04T08:01:10.635Z,1011.90
2023-01-04T08:02:10.479Z,1011.95
2023-01-04T08:03:10.387Z,1011.92
2023-01-04T08:04:10.437Z,1011.95
2023-01-04T08:05:10.419Z,1011.91
2023-01-04T08:06:10.348Z,1011.88
2023-01-04T08:07:10.330Z,1011.88
2023-01-04T08:08:10.297Z,1011.90
2023-01-04T08:09:10.306Z,1011.78
2023-01-04T08:10:10.261Z,1011.67
2023-01-04T08:11:10.301Z,1011.73
2023-01-04T08:12:10.260Z,1011.69
2023-01-04T08:13:10.286Z,1011.68
2023-01-04T08:14:10.249Z,1011.67
2023-01-04T08:15:10.264Z,1011.74
2023-01-04T08:16:10.311Z,1011.69
2023-01-04T08:17:10.227Z,1011.72
2023-01-04T08:18:10.176Z,1011.68
2023-01-04T08:19:10.181Z,1011.62
2023-01-04T08:20:10.171Z,1011.63
2023-01-04T08:21:10.169Z,1011.69
2023-01-04T08:22:10.138Z,1011.56
2023-01-04T08:23:10.157Z,1011.70
2023-01-04T08:24:10.129Z,1011.72
2023-01-04T08:25:10.141Z,1011.72
2023-01-04T08:26:10.102Z,1011.70
2023-01-04T08:27:10.080Z,1011.76
2023-01-04T08:28:10.098Z,1011.74
2023-01-04T08:29:10.112Z,1011.71
2023-01-04T08:30:10.072Z,1011.72
2023-01-04T08:31:10.080Z,1011.73
2023-01-04T08:32:10.065Z,1011.70
2023-01-04T08:33:10.015Z,1011.67
2023-01-04T08:34:10.032Z,1011.57
2023-01-04T08:35:10.036Z,1011.53
2023-01-04T08:36:09.993Z,1011.61
2023-01-04T08:37:09.970Z,1011.65
2023-01-04T08:38:47.293Z,1011.72
2023-01-04T08:39:10.962Z,1011.75
2023-01-04T08:40:09.990Z,1011.69
2023-01-04T08:41:39.399Z,1011.76
2023-01-04T08:42:22.033Z,1011.80
2023-01-04T08:43:10.896Z,1011.78
2023-01-04T08:44:09.923Z,1011.80
2023-01-04T08:45:09.878Z,1011.79
2023-01-04T08:46:09.928Z,1011.75
2023-01-04T08:47:09.861Z,1011.69
2023-01-04T08:48:09.830Z,1011.75
2023-01-04T08:49:09.860Z,1011.80
2023-01-04T08:50:11.042Z,1011.73
2023-01-04T08:51:09.858Z,1011.82
2023-01-04T08:52:09.808Z,1011.83
2023-01-04T08:53:09.786Z,1011.82
2023-01-04T08:54:09.781Z,1011.78
2023-01-04T08:55:13.331Z,1011.87
2023-01-04T08:56:09.775Z,1011.80
2023-01-04T08:57:09.748Z,1011.77
2023-01-04T08:58:09.774Z,1011.71
2023-01-04T08:59:09.749Z,1011.75
2023-01-04T09:00:09.711Z,1011.79
2023-01-04T09:01:09.803Z,1011.83
2023-01-04T09:02:09.861Z,1011.78
2023-01-04T09:03:09.899Z,1011.67
2023-01-04T09:04:09.745Z,1011.68
2023-01-04T09:05:09.811Z,1011.64
2023-01-04T09:06:09.643Z,1011.70
2023-01-04T09:07:09.642Z,1011.69
2023-01-04T09:08:09.649Z,1011.79
2023-01-04T09:09:09.646Z,1011.74
2023-01-04T09:10:09.593Z,1011.66
2023-01-04T09:11:09.602Z,1011.62
2023-01-04T09:12:09.577Z,1011.56
2023-01-04T09:13:09.584Z,1011.64
2023-01-04T09:14:09.931Z,1011.50
2023-01-04T09:15:09.571Z,1011.43
2023-01-04T09:16:09.650Z,1011.47
2023-01-04T09:17:09.533Z,1011.42
2023-01-04T09:18:31.090Z,1011.45
2023-01-04T09:19:10.535Z,1011.44
2023-01-04T09:20:09.486Z,1011.33
2023-01-04T09:21:09.631Z,1011.36
2023-01-04T09:22:09.570Z,1011.30
2023-01-04T09:23:09.475Z,1011.23
2023-01-04T09:24:09.447Z,1011.30
2023-01-04T09:25:09.441Z,1011.29
2023-01-04T09:26:09.898Z,1011.33
2023-01-04T09:27:09.450Z,1011.39
2023-01-04T09:28:09.404Z,1011.38
2023-01-04T09:29:09.384Z,1011.48
2023-01-04T09:30:09.379Z,1011.44
2023-01-04T09:31:09.542Z,1011.42
2023-01-04T09:32:16.147Z,1011.48
2023-01-04T09:33:10.369Z,1011.55
2023-01-04T09:34:14.746Z,1011.66
2023-01-04T09:35:10.310Z,1011.66
2023-01-04T09:36:09.294Z,1011.70
2023-01-04T09:37:09.350Z,1011.72
2023-01-04T09:38:09.332Z,1011.75
2023-01-04T09:39:16.501Z,1011.80
2023-01-04T09:40:10.555Z,1011.74
2023-01-04T09:41:09.236Z,1011.75
2023-01-04T09:42:09.260Z,1011.68
2023-01-04T09:43:20.230Z,1011.64
2023-01-04T09:44:10.252Z,1011.68
2023-01-04T09:45:25.509Z,1011.67
2023-01-04T09:46:10.299Z,1011.63
2023-01-04T09:47:09.300Z,1011.66
2023-01-04T09:48:09.183Z,1011.70
2023-01-04T09:49:09.156Z,1011.68
2023-01-04T09:50:09.148Z,1011.64
2023-01-04T09:51:09.174Z,1011.68
2023-01-04T09:52:09.154Z,1011.66
2023-01-04T09:53:09.152Z,1011.66
2023-01-04T09:54:09.119Z,1011.55
2023-01-04T09:55:39.051Z,1011.53
2023-01-04T09:56:10.076Z,1011.49
2023-01-04T09:57:09.082Z,1011.51
2023-01-04T09:58:09.090Z,1011.57
2023-01-04T09:59:09.041Z,1011.58
2023-01-04T10:00:09.038Z,1011.51
2023-01-04T10:01:09.240Z,1011.61
2023-01-04T10:02:09.227Z,1011.60
2023-01-04T10:03:09.143Z,1011.62
2023-01-04T10:04:08.987Z,1011.60
2023-01-04T10:05:09.542Z,1011.65
2023-01-04T10:06:09.003Z,1011.64
2023-01-04T10:07:08.973Z,1011.60
2023-01-04T10:08:08.936Z,1011.60
2023-01-04T10:09:08.938Z,1011.62
2023-01-04T10:10:08.955Z,1011.60
2023-01-04T10:11:08.932Z,1011.58
2023-01-04T10:12:09.573Z,1011.57
2023-01-04T10:13:08.905Z,1011.54
2023-01-04T10:14:08.875Z,1011.60
2023-01-04T10:15:08.850Z,1011.58
2023-01-04T10:16:08.962Z,1011.65
2023-01-04T10:17:14.202Z,1011.52
2023-01-04T10:19:50.509Z,1011.55
2023-01-04T10:21:17.717Z,1011.47
2023-01-04T10:21:31.429Z,1011.44
2023-01-04T10:22:09.937Z,1011.49
2023-01-04T10:23:08.789Z,1011.19
2023-01-04T10:24:08.764Z,1011.50
2023-01-04T10:25:08.815Z,1011.48
2023-01-04T10:26:08.755Z,1011.49
2023-01-04T10:27:09.048Z,1011.39
2023-01-04T10:28:08.721Z,1011.36
2023-01-04T10:29:08.704Z,1011.44
2023-01-04T10:30:08.720Z,1011.42
2023-01-04T10:31:39.492Z,1011.46
2023-01-04T10:32:09.761Z,1011.49
2023-01-04T10:33:08.723Z,1011.39
2023-01-04T10:34:10.830Z,1011.24
2023-01-04T10:35:09.647Z,1011.35
2023-01-04T10:36:08.661Z,1011.24
2023-01-04T10:37:08.625Z,1011.33
2023-01-04T10:38:08.609Z,1011.21
2023-01-04T10:39:08.629Z,1011.24
2023-01-04T10:40:08.604Z,1011.24
2023-01-04T10:41:08.609Z,1011.24
2023-01-04T10:42:08.566Z,1011.08
2023-01-04T10:43:08.545Z,1010.90
2023-01-04T10:44:12.280Z,1010.91
2023-01-04T10:45:09.815Z,1010.99
2023-01-04T10:46:08.546Z,1011.00
2023-01-04T10:47:08.643Z,1011.02
2023-01-04T10:48:08.499Z,1011.07
2023-01-04T10:49:08.499Z,1011.00
2023-01-04T10:50:08.480Z,1011.06
2023-01-04T10:51:10.462Z,1011.05
2023-01-04T10:52:08.432Z,1010.89
2023-01-04T10:53:08.422Z,1010.97
2023-01-04T10:54:08.414Z,1010.98
2023-01-04T10:55:08.410Z,1010.86
2023-01-04T10:56:24.184Z,1010.92
2023-01-04T10:57:09.445Z,1010.93
2023-01-04T10:58:08.370Z,1010.88
2023-01-04T10:59:08.399Z,1010.96
2023-01-04T11:00:08.359Z,1010.93
2023-01-04T11:01:08.533Z,1010.89
2023-01-04T11:02:08.545Z,1010.82
2023-01-04T11:03:09.444Z,1010.83
2023-01-04T11:04:08.327Z,1010.64
2023-01-04T11:05:08.309Z,1010.67
2023-01-04T11:06:08.270Z,1010.64
2023-01-04T11:07:08.273Z,1010.65
2023-01-04T11:08:08.288Z,1010.71
2023-01-04T11:09:08.273Z,1010.68
2023-01-04T11:10:08.245Z,1010.85
2023-01-04T11:11:08.247Z,1010.66
2023-01-04T11:12:08.219Z,1010.68
2023-01-04T11:13:08.230Z,1010.69
2023-01-04T11:14:08.221Z,1010.60
2023-01-04T11:15:08.187Z,1010.58
2023-01-04T11:16:08.242Z,1010.60
2023-01-04T11:17:08.144Z,1010.57
2023-01-04T11:18:08.239Z,1010.41
2023-01-04T11:19:08.156Z,1010.55
2023-01-04T11:20:08.131Z,1010.31
2023-01-04T11:21:08.113Z,1010.47
2023-01-04T11:22:08.089Z,1010.43
2023-01-04T11:23:08.182Z,1010.39
2023-01-04T11:24:30.812Z,1010.47
2023-01-04T11:25:37.562Z,1010.45
2023-01-04T11:26:09.111Z,1010.37
2023-01-04T11:27:08.067Z,1010.37
2023-01-04T11:28:08.053Z,1010.41
2023-01-04T11:29:08.100Z,1010.26
2023-01-04T11:30:08.035Z,1010.34
2023-01-04T11:31:08.013Z,1010.38
2023-01-04T11:32:08.066Z,1010.39
2023-01-04T11:33:07.992Z,1010.40
2023-01-04T11:34:07.960Z,1010.34
2023-01-04T11:35:07.965Z,1010.33
2023-01-04T11:36:07.957Z,1010.32
2023-01-04T11:37:07.960Z,1010.30
2023-01-04T11:38:07.943Z,1010.17
2023-01-04T11:39:07.948Z,1010.31
2023-01-04T11:40:07.911Z,1010.16
2023-01-04T11:41:07.892Z,1010.17
2023-01-04T11:42:07.913Z,1010.17
2023-01-04T11:43:07.874Z,1010.21
2023-01-04T11:44:07.905Z,1010.24
2023-01-04T11:45:07.869Z,1010.26
2023-01-04T11:46:07.888Z,1010.21
2023-01-04T11:47:07.833Z,1010.15
2023-01-04T11:48:14.326Z,1010.02
2023-01-04T11:49:08.798Z,1010.09
2023-01-04T11:50:07.779Z,1010.12
2023-01-04T11:51:12.402Z,1010.15
2023-01-04T11:52:08.770Z,1010.03
2023-01-04T11:53:07.752Z,1010.16
2023-01-04T11:54:07.768Z,1010.14
2023-01-04T11:55:07.725Z,1010.07
2023-01-04T11:56:07.751Z,1010.15
2023-01-04T11:57:11.773Z,1010.04
2023-01-04T11:58:07.757Z,1010.09
2023-01-04T11:59:07.698Z,1010.11
2023-01-04T12:00:07.659Z,1010.04
2023-01-04T12:01:07.803Z,1010.07
2023-01-04T12:02:07.877Z,1010.04
2023-01-04T12:03:07.753Z,1010.08
2023-01-04T12:04:07.652Z,1009.95
2023-01-04T12:05:07.623Z,1010.06
2023-01-04T12:06:07.600Z,1010.03